Hovedside
METAR-TAF:

METAR-TAF

Lufthavner :

Oljeplattform

K14-fa-1c, Nederland

breddegrad: 53-16-10N, lengdegrad: 3-37-40E, høyde over havet: 28 m

Gjeldene værobservasjon

Denne rapporten ble laget for 43 minutter siden, klokken 09:55 UTC
Vind 38 kt fra Vest
Temperatur 11°C
Luftfuktighet 71%
Trykk 995 hPa
Sikt 10 km eller mer
Få skyer i en høyde av 3400 ft
Spredte skyer i en høyde av 4700 ft

METAR: EHKV 080955Z AUTO 26038KT 9999 FEW034 SCT047 11/06 Q0995 W///H///

Tid: 11:38 (10:38 UTC)


TAF: fraværende

Værobservasjoner og værvarsel for over 4000 flyplasser (METAR- og TAF-rapporter).

Tilgjengelige stasjoner er representert av de røde og gule prikkene på kartet.

Hold musepekeren over prikken for å se navnet på stasjonen.

Klikk så for å se værobservasjoner og -varsler.

For å forandre kartet kan du klikke på den grønne knappen med svart kryss for å zoome inn, på den grønne knappen med strek for å zoome ut, eller på de grønne pilene for å se tilstøtende kart.


METAR-TAF: